createdAt,value
2023-08-18T00:01:51.459Z,2.75
2023-08-18T00:04:18.714Z,3.28
2023-08-18T00:07:05.280Z,2.45
2023-08-18T00:09:35.764Z,2.88
2023-08-18T00:17:34.413Z,2.42
2023-08-18T00:20:01.507Z,2.85
2023-08-18T00:22:31.221Z,2.60
2023-08-18T00:25:05.615Z,2.92
2023-08-18T00:27:34.040Z,3.28
2023-08-18T00:30:01.048Z,2.53
2023-08-18T00:32:28.233Z,2.25
2023-08-18T00:34:56.305Z,2.22
2023-08-18T00:37:27.470Z,2.28
2023-08-18T00:39:57.530Z,2.20
2023-08-18T00:42:24.548Z,2.28
2023-08-18T00:45:06.535Z,2.35
2023-08-18T00:47:33.743Z,2.70
2023-08-18T00:50:02.968Z,2.30
2023-08-18T00:54:57.366Z,2.88
2023-08-18T00:57:28.185Z,2.55
2023-08-18T01:00:08.631Z,2.20
2023-08-18T01:02:36.883Z,2.83
2023-08-18T01:07:31.379Z,1.90
2023-08-18T01:10:01.482Z,3.03
2023-08-18T01:12:40.875Z,2.25
2023-08-18T01:15:19.657Z,2.50
2023-08-18T01:20:31.457Z,3.50
2023-08-18T01:23:05.778Z,3.25
2023-08-18T01:25:34.916Z,4.15
2023-08-18T01:28:04.824Z,3.35
2023-08-18T01:30:41.856Z,3.42
2023-08-18T01:33:10.340Z,3.15
2023-08-18T01:35:38.059Z,3.25
2023-08-18T01:40:34.279Z,3.63
2023-08-18T01:43:01.375Z,3.20
2023-08-18T01:45:28.378Z,2.88
2023-08-18T01:47:55.574Z,3.10
2023-08-18T01:50:22.832Z,3.35
2023-08-18T01:52:49.768Z,3.67
2023-08-18T01:55:18.226Z,3.20
2023-08-18T01:57:45.130Z,3.65
2023-08-18T02:00:20.049Z,3.20
2023-08-18T02:02:48.905Z,2.83
2023-08-18T02:05:16.266Z,3.38
2023-08-18T02:07:43.410Z,3.40
2023-08-18T02:10:10.554Z,3.90
2023-08-18T02:12:39.046Z,3.55
2023-08-18T02:15:07.802Z,3.25
2023-08-18T02:17:34.795Z,2.85
2023-08-18T02:20:05.132Z,2.80
2023-08-18T02:22:32.318Z,3.42
2023-08-18T02:24:59.306Z,2.83
2023-08-18T02:27:27.349Z,3.17
2023-08-18T02:29:56.973Z,2.80
2023-08-18T02:32:24.638Z,2.60
2023-08-18T02:34:51.738Z,2.97
2023-08-18T02:37:18.763Z,3.28
2023-08-18T02:39:45.718Z,3.33
2023-08-18T02:42:12.756Z,3.63
2023-08-18T02:44:40.107Z,3.13
2023-08-18T02:47:11.014Z,3.28
2023-08-18T02:49:38.269Z,3.35
2023-08-18T02:52:05.384Z,3.33
2023-08-18T02:54:32.535Z,3.05
2023-08-18T02:57:00.853Z,3.20
2023-08-18T02:59:27.921Z,2.90
2023-08-18T03:01:55.395Z,3.33
2023-08-18T03:04:23.753Z,3.25
2023-08-18T03:06:50.767Z,3.08
2023-08-18T03:09:20.298Z,3.53
2023-08-18T03:11:47.896Z,3.40
2023-08-18T03:14:14.849Z,3.25
2023-08-18T03:16:42.608Z,3.00
2023-08-18T03:19:09.661Z,3.10
2023-08-18T03:21:38.912Z,3.28
2023-08-18T03:24:06.244Z,2.63
2023-08-18T03:26:33.411Z,3.13
2023-08-18T03:29:00.494Z,3.28
2023-08-18T03:31:27.969Z,3.08
2023-08-18T03:33:55.225Z,3.30
2023-08-18T03:36:22.221Z,4.13
2023-08-18T03:38:51.622Z,3.60
2023-08-18T03:41:18.666Z,3.90
2023-08-18T03:43:45.670Z,3.42
2023-08-18T03:46:22.458Z,3.38
2023-08-18T03:48:51.627Z,4.03
2023-08-18T03:51:18.938Z,3.92
2023-08-18T03:53:46.287Z,4.32
2023-08-18T03:56:15.297Z,3.13
2023-08-18T03:58:43.492Z,3.63
2023-08-18T04:01:10.859Z,3.67
2023-08-18T04:03:42.435Z,4.18
2023-08-18T04:06:11.128Z,3.78
2023-08-18T04:08:41.127Z,3.67
2023-08-18T04:11:09.599Z,3.95
2023-08-18T04:13:38.065Z,4.07
2023-08-18T04:16:05.353Z,3.30
2023-08-18T04:18:32.736Z,4.47
2023-08-18T04:20:59.797Z,3.60
2023-08-18T04:23:30.159Z,3.80
2023-08-18T04:25:57.996Z,3.35
2023-08-18T04:28:25.123Z,4.50
2023-08-18T04:30:53.719Z,3.58
2023-08-18T04:33:42.302Z,3.38
2023-08-18T04:38:38.698Z,3.33
2023-08-18T04:41:10.470Z,3.90
2023-08-18T04:43:37.502Z,3.10
2023-08-18T04:46:05.999Z,4.07
2023-08-18T04:48:34.088Z,3.30
2023-08-18T04:51:02.936Z,3.30
2023-08-18T04:53:29.993Z,4.30
2023-08-18T04:55:57.044Z,3.72
2023-08-18T04:58:24.236Z,3.38
2023-08-18T05:00:51.220Z,3.75
2023-08-18T05:03:19.837Z,3.55
2023-08-18T05:06:09.018Z,3.97
2023-08-18T05:08:36.928Z,4.25
2023-08-18T05:11:05.474Z,4.22
2023-08-18T05:13:32.904Z,3.42
2023-08-18T05:16:01.004Z,4.10
2023-08-18T05:18:32.530Z,3.95
2023-08-18T05:21:00.207Z,3.55
2023-08-18T05:23:27.982Z,3.60
2023-08-18T05:25:58.126Z,4.78
2023-08-18T05:28:26.043Z,3.38
2023-08-18T05:30:53.656Z,3.53
2023-08-18T05:33:21.372Z,3.80
2023-08-18T05:38:16.799Z,4.28
2023-08-18T05:40:45.201Z,3.85
2023-08-18T05:43:13.567Z,3.95
2023-08-18T05:45:40.899Z,3.60
2023-08-18T05:48:08.604Z,3.58
2023-08-18T05:50:35.970Z,4.43
2023-08-18T05:53:05.182Z,2.97
2023-08-18T05:55:33.044Z,4.05
2023-08-18T05:58:02.283Z,3.72
2023-08-18T06:00:29.970Z,3.58
2023-08-18T06:02:57.627Z,2.95
2023-08-18T06:05:27.703Z,3.40
2023-08-18T06:07:54.771Z,3.30
2023-08-18T06:10:23.996Z,3.13
2023-08-18T06:12:51.203Z,3.90
2023-08-18T06:15:18.595Z,3.50
2023-08-18T06:17:45.603Z,4.65
2023-08-18T06:20:13.292Z,3.45
2023-08-18T06:22:40.307Z,3.25
2023-08-18T06:25:08.586Z,3.80
2023-08-18T06:27:36.919Z,3.10
2023-08-18T06:30:04.476Z,3.80
2023-08-18T06:34:58.970Z,3.10
2023-08-18T06:37:26.068Z,3.13
2023-08-18T06:39:53.147Z,3.22
2023-08-18T06:42:20.139Z,3.25
2023-08-18T06:44:48.601Z,2.78
2023-08-18T06:47:15.601Z,3.42
2023-08-18T06:49:42.884Z,3.00
2023-08-18T06:52:09.781Z,2.88
2023-08-18T06:54:36.761Z,2.78
2023-08-18T06:57:03.955Z,3.47
2023-08-18T06:59:31.016Z,3.15
2023-08-18T07:01:59.344Z,2.38
2023-08-18T07:04:26.466Z,2.70
2023-08-18T07:06:53.471Z,3.08
2023-08-18T07:09:20.577Z,3.03
2023-08-18T07:11:47.577Z,2.78
2023-08-18T07:14:14.618Z,3.25
2023-08-18T07:16:41.663Z,2.90
2023-08-18T07:19:10.041Z,2.70
2023-08-18T07:21:37.041Z,2.88
2023-08-18T07:24:04.730Z,2.03
2023-08-18T07:26:32.609Z,2.03
2023-08-18T07:28:59.754Z,1.70
2023-08-18T07:31:26.909Z,2.13
2023-08-18T07:33:54.029Z,2.38
2023-08-18T07:36:22.398Z,1.90
2023-08-18T07:38:49.405Z,2.08
2023-08-18T07:41:16.370Z,2.58
2023-08-18T07:43:43.476Z,2.05
2023-08-18T07:46:11.796Z,2.50
2023-08-18T07:48:40.171Z,2.35
2023-08-18T07:51:07.499Z,2.42
2023-08-18T07:53:35.870Z,3.35
2023-08-18T07:56:03.459Z,3.30
2023-08-18T07:58:30.496Z,2.60
2023-08-18T08:00:58.323Z,3.78
2023-08-18T08:03:25.665Z,3.20
2023-08-18T08:08:19.666Z,2.40
2023-08-18T08:13:14.928Z,2.50
2023-08-18T08:15:46.864Z,2.63
2023-08-18T08:18:14.826Z,2.75
2023-08-18T08:20:41.887Z,2.67
2023-08-18T08:23:09.020Z,2.30
2023-08-18T08:25:36.508Z,2.50
2023-08-18T08:28:06.736Z,2.20
2023-08-18T08:30:36.521Z,2.28
2023-08-18T08:33:07.877Z,2.95
2023-08-18T08:35:35.106Z,2.33
2023-08-18T08:38:02.116Z,2.40
2023-08-18T08:40:29.158Z,2.58
2023-08-18T08:45:29.263Z,1.75
2023-08-18T08:47:59.708Z,2.60
2023-08-18T08:50:32.567Z,1.60
2023-08-18T08:53:01.428Z,1.80
2023-08-18T08:55:32.378Z,1.98
2023-08-18T08:57:59.402Z,2.08
2023-08-18T09:00:28.864Z,1.73
2023-08-18T09:03:00.783Z,1.90
2023-08-18T09:05:30.310Z,1.90
2023-08-18T09:07:57.299Z,1.98
2023-08-18T09:10:24.289Z,2.08
2023-08-18T09:12:51.450Z,2.60
2023-08-18T09:15:18.629Z,1.65
2023-08-18T09:20:15.301Z,2.20
2023-08-18T09:22:45.680Z,1.77
2023-08-18T09:25:13.413Z,2.20
2023-08-18T09:27:40.557Z,2.03
2023-08-18T09:30:08.504Z,1.70
2023-08-18T09:32:36.672Z,1.88
2023-08-18T09:35:11.511Z,2.08
2023-08-18T09:37:38.546Z,2.03
2023-08-18T09:40:06.966Z,1.92
2023-08-18T09:42:33.910Z,1.85
2023-08-18T09:45:00.996Z,1.83
2023-08-18T09:49:55.775Z,2.10
2023-08-18T09:54:53.974Z,1.77
2023-08-18T09:57:27.092Z,2.10
2023-08-18T09:59:56.854Z,1.90
2023-08-18T10:02:25.667Z,1.80
2023-08-18T10:04:52.937Z,1.80
2023-08-18T10:07:20.136Z,2.13
2023-08-18T10:12:15.316Z,2.20
2023-08-18T10:17:11.098Z,1.90
2023-08-18T10:19:48.752Z,1.88
2023-08-18T10:22:17.311Z,2.33
2023-08-18T10:24:49.692Z,2.10
2023-08-18T10:27:33.110Z,2.03
2023-08-18T10:30:01.794Z,1.80
2023-08-18T10:32:29.288Z,2.17
2023-08-18T10:35:18.935Z,2.10
2023-08-18T10:37:45.995Z,1.60
2023-08-18T10:42:46.671Z,1.92
2023-08-18T10:47:50.724Z,2.20
2023-08-18T10:50:19.336Z,2.60
2023-08-18T10:52:46.386Z,2.70
2023-08-18T10:57:42.112Z,2.72
2023-08-18T11:00:12.720Z,2.40
2023-08-18T11:02:39.980Z,2.15
2023-08-18T11:05:07.735Z,2.40
2023-08-18T11:07:34.973Z,2.67
2023-08-18T11:10:02.058Z,2.10
2023-08-18T11:14:57.732Z,2.17
2023-08-18T11:17:24.726Z,1.83
2023-08-18T11:19:51.782Z,2.20
2023-08-18T11:24:46.373Z,2.17
2023-08-18T11:27:13.365Z,2.95
2023-08-18T11:29:40.901Z,2.38
2023-08-18T11:32:09.954Z,2.75
2023-08-18T11:34:37.192Z,2.60
2023-08-18T11:37:06.156Z,2.60
2023-08-18T11:39:34.041Z,2.60
2023-08-18T11:42:01.823Z,2.05
2023-08-18T11:44:28.980Z,2.20
2023-08-18T11:46:58.630Z,2.10
2023-08-18T11:49:27.328Z,2.05
2023-08-18T11:51:57.641Z,1.90
2023-08-18T11:54:25.506Z,2.50
2023-08-18T11:56:52.872Z,2.42
2023-08-18T11:59:20.614Z,2.38
2023-08-18T12:01:47.657Z,2.30
2023-08-18T12:06:42.837Z,2.30
2023-08-18T12:09:13.739Z,2.60
2023-08-18T12:11:40.797Z,2.22
2023-08-18T12:14:08.121Z,1.77
2023-08-18T12:16:35.452Z,2.05
2023-08-18T12:19:05.764Z,1.92
2023-08-18T12:21:33.134Z,2.20
2023-08-18T12:24:02.282Z,2.28
2023-08-18T12:26:29.423Z,2.20
2023-08-18T12:28:56.492Z,2.17
2023-08-18T12:31:25.873Z,2.20
2023-08-18T12:33:53.158Z,2.60
2023-08-18T12:36:23.320Z,2.00
2023-08-18T12:38:50.746Z,2.28
2023-08-18T12:41:19.203Z,2.15
2023-08-18T12:43:46.329Z,2.20
2023-08-18T12:46:13.427Z,2.03
2023-08-18T12:48:40.468Z,2.28
2023-08-18T12:51:07.559Z,2.75
2023-08-18T12:53:34.503Z,2.53
2023-08-18T12:56:01.671Z,1.90
2023-08-18T12:58:30.658Z,2.10
2023-08-18T13:00:57.698Z,2.40
2023-08-18T13:03:24.739Z,2.78
2023-08-18T13:05:51.834Z,2.35
2023-08-18T13:08:18.746Z,2.00
2023-08-18T13:10:47.244Z,2.47
2023-08-18T13:13:14.229Z,2.70
2023-08-18T13:15:42.608Z,2.25
2023-08-18T13:18:09.699Z,2.60
2023-08-18T13:20:37.653Z,2.55
2023-08-18T13:23:05.133Z,2.17
2023-08-18T13:25:33.031Z,2.47
2023-08-18T13:28:00.202Z,2.70
2023-08-18T13:30:27.308Z,2.90
2023-08-18T13:32:55.694Z,2.22
2023-08-18T13:35:22.678Z,2.50
2023-08-18T13:37:51.566Z,2.25
2023-08-18T13:40:18.891Z,2.30
2023-08-18T13:42:45.900Z,2.22
2023-08-18T13:45:13.058Z,2.53
2023-08-18T13:47:40.259Z,2.35
2023-08-18T13:50:09.002Z,2.22
2023-08-18T13:52:36.034Z,1.98
2023-08-18T13:55:03.198Z,1.85
2023-08-18T13:57:30.153Z,2.75
2023-08-18T13:59:57.427Z,3.00
2023-08-18T14:02:24.470Z,2.70
2023-08-18T14:04:52.244Z,2.65
2023-08-18T14:07:20.663Z,2.58
2023-08-18T14:09:47.642Z,2.92
2023-08-18T14:12:14.570Z,3.10
2023-08-18T14:14:41.467Z,2.95
2023-08-18T14:17:09.977Z,2.97
2023-08-18T14:19:37.126Z,2.80
2023-08-18T14:22:04.132Z,2.80
2023-08-18T14:24:32.568Z,3.05
2023-08-18T14:26:59.538Z,3.10
2023-08-18T14:29:26.577Z,2.95
2023-08-18T14:34:20.875Z,2.80
2023-08-18T14:36:47.893Z,3.10
2023-08-18T14:39:14.907Z,2.72
2023-08-18T14:44:10.764Z,2.70
2023-08-18T14:46:37.770Z,3.17
2023-08-18T14:51:32.644Z,2.80
2023-08-18T14:56:26.447Z,2.78
2023-08-18T15:01:21.619Z,3.30
2023-08-18T15:03:49.445Z,3.28
2023-08-18T15:06:16.739Z,2.80
2023-08-18T15:08:43.781Z,3.47
2023-08-18T15:11:10.797Z,3.20
2023-08-18T15:13:37.909Z,3.70
2023-08-18T15:16:06.397Z,3.17
2023-08-18T15:18:33.591Z,3.15
2023-08-18T15:21:00.666Z,2.90
2023-08-18T15:25:54.516Z,2.63
2023-08-18T15:28:21.717Z,3.10
2023-08-18T15:30:48.662Z,2.90
2023-08-18T15:35:44.314Z,2.90
2023-08-18T15:38:11.480Z,2.83
2023-08-18T15:40:42.515Z,2.88
2023-08-18T15:43:10.285Z,3.20
2023-08-18T15:45:44.583Z,3.33
2023-08-18T15:48:11.591Z,3.45
2023-08-18T15:50:40.170Z,3.20
2023-08-18T15:53:07.218Z,3.67
2023-08-18T15:55:37.569Z,3.42
2023-08-18T15:58:05.056Z,3.28
2023-08-18T16:00:32.664Z,3.33
2023-08-18T16:02:59.818Z,2.70
2023-08-18T16:07:55.504Z,3.20
2023-08-18T16:10:22.489Z,3.28
2023-08-18T16:12:49.456Z,3.30
2023-08-18T16:17:46.753Z,3.42
2023-08-18T16:22:40.759Z,3.08
2023-08-18T16:25:10.131Z,2.83
2023-08-18T16:27:37.298Z,3.40
2023-08-18T16:30:05.350Z,3.17
2023-08-18T16:32:32.442Z,2.92
2023-08-18T16:37:26.317Z,4.97
2023-08-18T16:39:53.332Z,7.20
2023-08-18T16:42:21.742Z,4.10
2023-08-18T16:44:48.915Z,6.78
2023-08-18T16:49:42.745Z,3.58
2023-08-18T16:52:09.920Z,3.05
2023-08-18T16:57:04.142Z,3.22
2023-08-18T17:02:03.044Z,2.78
2023-08-18T17:04:33.343Z,3.95
2023-08-18T17:07:00.421Z,2.80
2023-08-18T17:09:27.744Z,3.35
2023-08-18T17:11:54.702Z,3.45
2023-08-18T17:14:22.048Z,3.72
2023-08-18T17:16:50.592Z,3.25
2023-08-18T17:19:17.681Z,3.65
2023-08-18T17:21:44.734Z,3.40
2023-08-18T17:24:13.733Z,3.55
2023-08-18T17:26:42.257Z,3.40
2023-08-18T17:29:09.217Z,3.42
2023-08-18T17:31:36.277Z,3.20
2023-08-18T17:34:04.966Z,3.30
2023-08-18T17:36:32.024Z,2.92
2023-08-18T17:38:59.298Z,3.50
2023-08-18T17:41:26.203Z,3.30
2023-08-18T17:43:53.265Z,3.83
2023-08-18T17:46:20.333Z,3.60
2023-08-18T17:48:47.416Z,3.63
2023-08-18T17:51:15.861Z,3.50
2023-08-18T17:53:42.816Z,3.72
2023-08-18T17:56:10.048Z,3.92
2023-08-18T17:58:37.051Z,3.83
2023-08-18T18:01:04.111Z,3.90
2023-08-18T18:03:31.182Z,4.60
2023-08-18T18:05:58.450Z,3.97
2023-08-18T18:08:28.247Z,3.22
2023-08-18T18:10:55.337Z,3.47
2023-08-18T18:13:22.378Z,4.00
2023-08-18T18:15:49.425Z,3.58
2023-08-18T18:18:16.454Z,3.42
2023-08-18T18:20:43.541Z,3.97
2023-08-18T18:23:10.553Z,3.55
2023-08-18T18:25:38.886Z,3.42
2023-08-18T18:28:06.250Z,3.72
2023-08-18T18:30:33.558Z,3.13
2023-08-18T18:33:00.588Z,3.83
2023-08-18T18:35:28.045Z,3.90
2023-08-18T18:42:50.191Z,4.05
2023-08-18T18:45:18.334Z,3.03
2023-08-18T18:47:45.479Z,3.80
2023-08-18T18:50:12.577Z,3.40
2023-08-18T18:52:39.506Z,3.35
2023-08-18T18:55:07.310Z,3.60
2023-08-18T18:57:34.563Z,4.10
2023-08-18T19:00:02.897Z,4.60
2023-08-18T19:02:32.765Z,3.17
2023-08-18T19:05:00.102Z,2.80
2023-08-18T19:07:27.474Z,4.10
2023-08-18T19:09:54.608Z,3.08
2023-08-18T19:12:21.843Z,3.65
2023-08-18T19:14:49.863Z,2.90
2023-08-18T19:17:18.788Z,3.03
2023-08-18T19:19:45.903Z,3.35
2023-08-18T19:22:16.862Z,3.55
2023-08-18T19:24:44.146Z,2.60
2023-08-18T19:27:11.322Z,2.70
2023-08-18T19:29:38.268Z,3.13
2023-08-18T19:32:10.047Z,2.85
2023-08-18T19:34:38.576Z,3.20
2023-08-18T19:37:06.875Z,3.05
2023-08-18T19:39:34.007Z,3.90
2023-08-18T19:42:01.176Z,3.08
2023-08-18T19:44:28.645Z,3.03
2023-08-18T19:49:22.717Z,2.50
2023-08-18T19:51:50.997Z,3.92
2023-08-18T19:54:19.680Z,3.00
2023-08-18T19:56:47.023Z,3.05
2023-08-18T19:59:14.155Z,2.45
2023-08-18T20:01:41.132Z,2.72
2023-08-18T20:04:08.261Z,3.00
2023-08-18T20:06:35.187Z,2.38
2023-08-18T20:09:04.226Z,2.80
2023-08-18T20:11:31.247Z,2.67
2023-08-18T20:13:58.314Z,2.35
2023-08-18T20:16:26.077Z,2.40
2023-08-18T20:18:53.169Z,2.45
2023-08-18T20:21:20.254Z,2.35
2023-08-18T20:23:47.318Z,2.63
2023-08-18T20:26:15.715Z,2.75
2023-08-18T20:28:43.939Z,2.67
2023-08-18T20:31:11.517Z,2.60
2023-08-18T20:33:38.687Z,2.80
2023-08-18T20:36:06.116Z,2.67
2023-08-18T20:38:35.723Z,2.40
2023-08-18T20:41:07.046Z,2.25
2023-08-18T20:43:35.595Z,2.67
2023-08-18T20:46:02.573Z,2.92
2023-08-18T20:48:30.538Z,2.80
2023-08-18T20:50:58.799Z,3.45
2023-08-18T20:53:25.959Z,2.55
2023-08-18T20:55:53.127Z,3.33
2023-08-18T20:58:20.065Z,2.78
2023-08-18T21:00:54.099Z,2.90
2023-08-18T21:03:21.202Z,3.28
2023-08-18T21:05:48.409Z,2.70
2023-08-18T21:08:15.936Z,2.72
2023-08-18T21:10:42.882Z,2.85
2023-08-18T21:13:09.882Z,2.55
2023-08-18T21:15:37.058Z,2.90
2023-08-18T21:18:05.795Z,2.35
2023-08-18T21:20:32.887Z,2.28
2023-08-18T21:23:18.790Z,1.98
2023-08-18T21:25:45.785Z,2.53
2023-08-18T21:28:12.812Z,2.55
2023-08-18T21:30:40.400Z,2.40
2023-08-18T21:33:08.927Z,2.40
2023-08-18T21:35:35.925Z,2.90
2023-08-18T21:38:02.988Z,3.03
2023-08-18T21:40:29.994Z,3.38
2023-08-18T21:42:56.947Z,2.28
2023-08-18T21:45:26.148Z,2.78
2023-08-18T21:47:54.800Z,2.20
2023-08-18T21:50:23.389Z,2.80
2023-08-18T21:52:50.326Z,2.28
2023-08-18T21:55:17.462Z,2.20
2023-08-18T21:57:44.509Z,2.25
2023-08-18T22:00:11.970Z,2.47
2023-08-18T22:02:42.174Z,2.85
2023-08-18T22:07:37.981Z,2.30
2023-08-18T22:10:07.244Z,2.53
2023-08-18T22:12:34.284Z,2.42
2023-08-18T22:15:01.520Z,2.33
2023-08-18T22:17:28.456Z,2.42
2023-08-18T22:19:55.684Z,1.95
2023-08-18T22:22:33.285Z,2.33
2023-08-18T22:25:03.418Z,2.47
2023-08-18T22:27:30.469Z,2.45
2023-08-18T22:29:57.407Z,2.60
2023-08-18T22:32:24.556Z,2.85
2023-08-18T22:34:51.595Z,2.17
2023-08-18T22:37:18.519Z,2.30
2023-08-18T22:39:45.596Z,2.35
2023-08-18T22:42:14.027Z,1.98
2023-08-18T22:44:41.018Z,2.53
2023-08-18T22:47:09.962Z,1.90
2023-08-18T22:49:37.186Z,2.25
2023-08-18T22:52:05.258Z,2.33
2023-08-18T22:54:32.658Z,2.22
2023-08-18T22:56:59.871Z,2.42
2023-08-18T22:59:28.831Z,2.10
2023-08-18T23:01:56.075Z,3.10
2023-08-18T23:04:23.396Z,2.20
2023-08-18T23:06:50.722Z,2.15
2023-08-18T23:09:17.750Z,2.42
2023-08-18T23:11:44.784Z,2.13
2023-08-18T23:14:11.817Z,3.28
2023-08-18T23:16:40.617Z,2.10
2023-08-18T23:19:07.598Z,2.30
2023-08-18T23:21:34.682Z,1.95
2023-08-18T23:24:01.739Z,1.80
2023-08-18T23:26:28.741Z,2.20
2023-08-18T23:28:55.726Z,1.83
2023-08-18T23:31:23.508Z,1.77
2023-08-18T23:33:51.950Z,2.13
2023-08-18T23:36:18.943Z,3.55
2023-08-18T23:38:46.891Z,1.90
2023-08-18T23:41:13.876Z,1.83
2023-08-18T23:43:41.392Z,1.50
2023-08-18T23:48:41.024Z,2.33
2023-08-18T23:51:11.073Z,2.08
2023-08-18T23:53:38.314Z,1.65
2023-08-18T23:56:05.469Z,1.98
2023-08-18T23:58:32.760Z,2.53
